This is the latest recevied weather packets stored in our database for station/object N9BSW. If no packets are shown the sender has not sent any weather packets the latest 10 day(s).
| Time | Temp. | Humidity | Pressure | Rain* | Wind** | Luminosity | Snow |
|---|---|---|---|---|---|---|---|
| 1778004038 | 15° C | 94% | 1007.9 hPa | 0 mm | - | 122 W/m² | - |
| 1778003737 | 15° C | 93% | 1008.1 hPa | 0 mm | - | 101 W/m² | - |
| 1778003435 | 15° C | 94% | 1008.5 hPa | 0 mm | - | 82 W/m² | - |
| 1778003132 | 15° C | 93% | 1008.2 hPa | 0 mm | - | 107 W/m² | - |
| 1778002828 | 15° C | 93% | 1008.7 hPa | 0 mm | - | 79 W/m² | - |
| 1778002525 | 15° C | 93% | 1008.7 hPa | 0 mm | - | 77 W/m² | - |
| 1778002222 | 15° C | 91% | 1008.5 hPa | 0 mm | - | 84 W/m² | - |
| 1778001920 | 15.56° C | 90% | 1008.8 hPa | 0 mm | - | 67 W/m² | - |
| 1778001615 | 15.56° C | 89% | 1008.7 hPa | 0 mm | - | 72 W/m² | - |
| 1778001311 | 15.56° C | 89% | 1008.8 hPa | 0 mm | - | 39 W/m² | - |
| 1778001008 | 15.56° C | 89% | 1008.7 hPa | 0 mm | - | 82 W/m² | - |
| 1778000705 | 15.56° C | 88% | 1008.5 hPa | 0 mm | - | 170 W/m² | - |
| 1778000400 | 15.56° C | 88% | 1008.7 hPa | 0 mm | - | 68 W/m² | - |
| 1778000096 | 15.56° C | 89% | 1008.7 hPa | 0 mm | - | 46 W/m² | - |
| 1777999792 | 15.56° C | 89% | 1008.6 hPa | 0 mm | - | 61 W/m² | - |
| 1777999488 | 15.56° C | 89% | 1008.6 hPa | 0 mm | - | 141 W/m² | - |
| 1777999186 | 15.56° C | 88% | 1009 hPa | 0 mm | - | 87 W/m² | - |
| 1777998885 | 15.56° C | 89% | 1009.1 hPa | 0 mm | - | 99 W/m² | - |
| 1777998584 | 15.56° C | 88% | 1009.2 hPa | 0 mm | - | 83 W/m² | - |
| 1777998279 | 15.56° C | 88% | 1009.2 hPa | 0 mm | - | 64 W/m² | - |
| 1777997976 | 16.11° C | 88% | 1008.8 hPa | 0 mm | - | 104 W/m² | - |
| 1777997672 | 16.11° C | 88% | 1009 hPa | 0 mm | - | 154 W/m² | - |
| 1777997370 | 16.11° C | 87% | 1009.2 hPa | 0 mm | - | 86 W/m² | - |
| 1777997069 | 16.67° C | 85% | 1009 hPa | 0 mm | - | 59 W/m² | - |
| 1777996764 | 16.67° C | 85% | 1008.7 hPa | 0 mm | - | 60 W/m² | - |
* Rain latest hour (hover to see other rain measurements)
** Current wind speed in m/s (hover to see current wind gust speed)